sensor_id;sensor_type;location;lat;lon;timestamp;P1;durP1;ratioP1;P2;durP2;ratioP2
76296;SDS011;65104;52.994;6.552;2022-12-10T00:01:49;29.25;;;11.75;;
76296;SDS011;65104;52.994;6.552;2022-12-10T00:04:15;40.47;;;15.02;;
76296;SDS011;65104;52.994;6.552;2022-12-10T00:06:41;36.20;;;14.57;;
76296;SDS011;65104;52.994;6.552;2022-12-10T00:09:09;45.45;;;15.60;;
76296;SDS011;65104;52.994;6.552;2022-12-10T00:11:38;33.15;;;13.80;;
76296;SDS011;65104;52.994;6.552;2022-12-10T00:14:04;34.40;;;13.80;;
76296;SDS011;65104;52.994;6.552;2022-12-10T00:16:31;35.22;;;14.52;;
76296;SDS011;65104;52.994;6.552;2022-12-10T00:18:58;40.58;;;15.73;;
76296;SDS011;65104;52.994;6.552;2022-12-10T00:21:29;37.40;;;15.00;;
76296;SDS011;65104;52.994;6.552;2022-12-10T00:23:56;40.00;;;15.35;;
76296;SDS011;65104;52.994;6.552;2022-12-10T00:26:23;36.25;;;16.25;;
76296;SDS011;65104;52.994;6.552;2022-12-10T00:28:50;38.63;;;15.90;;
76296;SDS011;65104;52.994;6.552;2022-12-10T00:31:18;43.67;;;16.90;;
76296;SDS011;65104;52.994;6.552;2022-12-10T00:33:47;37.60;;;14.85;;
76296;SDS011;65104;52.994;6.552;2022-12-10T00:36:15;37.17;;;15.38;;
76296;SDS011;65104;52.994;6.552;2022-12-10T00:38:42;40.63;;;16.08;;
76296;SDS011;65104;52.994;6.552;2022-12-10T00:41:08;38.50;;;14.68;;
76296;SDS011;65104;52.994;6.552;2022-12-10T00:43:34;38.05;;;15.93;;
76296;SDS011;65104;52.994;6.552;2022-12-10T00:45:59;43.22;;;17.27;;
76296;SDS011;65104;52.994;6.552;2022-12-10T00:48:25;40.65;;;15.77;;
76296;SDS011;65104;52.994;6.552;2022-12-10T00:50:54;38.42;;;14.52;;
76296;SDS011;65104;52.994;6.552;2022-12-10T00:53:22;39.85;;;15.43;;
76296;SDS011;65104;52.994;6.552;2022-12-10T00:55:48;35.03;;;14.82;;
76296;SDS011;65104;52.994;6.552;2022-12-10T00:58:13;41.28;;;15.90;;
76296;SDS011;65104;52.994;6.552;2022-12-10T01:00:39;44.75;;;15.75;;
76296;SDS011;65104;52.994;6.552;2022-12-10T01:03:04;40.88;;;14.73;;
76296;SDS011;65104;52.994;6.552;2022-12-10T01:05:29;42.55;;;16.27;;
76296;SDS011;65104;52.994;6.552;2022-12-10T01:07:55;46.25;;;17.02;;
76296;SDS011;65104;52.994;6.552;2022-12-10T01:10:20;44.03;;;16.58;;
76296;SDS011;65104;52.994;6.552;2022-12-10T01:12:45;42.88;;;15.55;;
76296;SDS011;65104;52.994;6.552;2022-12-10T01:15:11;42.28;;;14.90;;
76296;SDS011;65104;52.994;6.552;2022-12-10T01:17:36;43.72;;;16.52;;
76296;SDS011;65104;52.994;6.552;2022-12-10T01:20:02;35.75;;;14.70;;
76296;SDS011;65104;52.994;6.552;2022-12-10T01:22:28;37.40;;;15.60;;
76296;SDS011;65104;52.994;6.552;2022-12-10T01:24:53;45.67;;;16.40;;
76296;SDS011;65104;52.994;6.552;2022-12-10T01:27:19;42.08;;;15.68;;
76296;SDS011;65104;52.994;6.552;2022-12-10T01:29:44;44.28;;;16.05;;
76296;SDS011;65104;52.994;6.552;2022-12-10T01:32:10;38.80;;;15.07;;
76296;SDS011;65104;52.994;6.552;2022-12-10T01:34:35;48.60;;;17.33;;
76296;SDS011;65104;52.994;6.552;2022-12-10T01:37:00;40.58;;;15.27;;
76296;SDS011;65104;52.994;6.552;2022-12-10T01:39:26;46.47;;;17.63;;
76296;SDS011;65104;52.994;6.552;2022-12-10T01:41:53;48.10;;;17.60;;
76296;SDS011;65104;52.994;6.552;2022-12-10T01:46:47;43.77;;;14.90;;
76296;SDS011;65104;52.994;6.552;2022-12-10T01:49:15;41.55;;;16.98;;
76296;SDS011;65104;52.994;6.552;2022-12-10T01:51:46;44.65;;;17.23;;
76296;SDS011;65104;52.994;6.552;2022-12-10T01:54:18;46.42;;;17.15;;
76296;SDS011;65104;52.994;6.552;2022-12-10T01:56:47;40.75;;;16.77;;
76296;SDS011;65104;52.994;6.552;2022-12-10T01:59:18;37.53;;;15.98;;
76296;SDS011;65104;52.994;6.552;2022-12-10T02:07:00;42.28;;;16.90;;
76296;SDS011;65104;52.994;6.552;2022-12-10T02:09:52;42.95;;;17.75;;
76296;SDS011;65104;52.994;6.552;2022-12-10T02:12:35;37.67;;;14.88;;
76296;SDS011;65104;52.994;6.552;2022-12-10T02:15:15;42.65;;;16.52;;
76296;SDS011;65104;52.994;6.552;2022-12-10T02:17:52;44.88;;;16.60;;
76296;SDS011;65104;52.994;6.552;2022-12-10T02:23:05;45.55;;;17.40;;
76296;SDS011;65104;52.994;6.552;2022-12-10T02:31:33;45.70;;;17.70;;
76296;SDS011;65104;52.994;6.552;2022-12-10T02:34:00;45.85;;;16.98;;
76296;SDS011;65104;52.994;6.552;2022-12-10T02:36:31;45.13;;;16.92;;
76296;SDS011;65104;52.994;6.552;2022-12-10T02:39:02;45.28;;;17.92;;
76296;SDS011;65104;52.994;6.552;2022-12-10T02:41:35;41.47;;;17.95;;
76296;SDS011;65104;52.994;6.552;2022-12-10T02:44:05;48.33;;;18.05;;
76296;SDS011;65104;52.994;6.552;2022-12-10T02:46:34;48.78;;;18.05;;
76296;SDS011;65104;52.994;6.552;2022-12-10T02:49:02;48.83;;;19.02;;
76296;SDS011;65104;52.994;6.552;2022-12-10T02:51:30;47.25;;;17.10;;
76296;SDS011;65104;52.994;6.552;2022-12-10T02:54:00;45.47;;;17.83;;
76296;SDS011;65104;52.994;6.552;2022-12-10T02:56:34;53.10;;;18.10;;
76296;SDS011;65104;52.994;6.552;2022-12-10T02:59:14;51.92;;;18.20;;
76296;SDS011;65104;52.994;6.552;2022-12-10T03:04:56;47.30;;;17.42;;
76296;SDS011;65104;52.994;6.552;2022-12-10T03:07:35;47.15;;;17.27;;
76296;SDS011;65104;52.994;6.552;2022-12-10T03:12:56;53.38;;;17.23;;
76296;SDS011;65104;52.994;6.552;2022-12-10T03:15:25;45.75;;;17.63;;
76296;SDS011;65104;52.994;6.552;2022-12-10T03:17:52;46.78;;;17.35;;
76296;SDS011;65104;52.994;6.552;2022-12-10T03:20:20;52.92;;;18.10;;
76296;SDS011;65104;52.994;6.552;2022-12-10T03:22:48;43.78;;;15.65;;
76296;SDS011;65104;52.994;6.552;2022-12-10T03:25:16;48.40;;;18.25;;
76296;SDS011;65104;52.994;6.552;2022-12-10T03:27:45;49.00;;;16.92;;
76296;SDS011;65104;52.994;6.552;2022-12-10T03:30:14;49.38;;;19.67;;
76296;SDS011;65104;52.994;6.552;2022-12-10T03:32:40;45.40;;;18.38;;
76296;SDS011;65104;52.994;6.552;2022-12-10T03:35:08;51.17;;;18.63;;
76296;SDS011;65104;52.994;6.552;2022-12-10T03:37:34;48.30;;;17.55;;
76296;SDS011;65104;52.994;6.552;2022-12-10T03:40:00;45.60;;;19.35;;
76296;SDS011;65104;52.994;6.552;2022-12-10T03:42:26;53.10;;;17.92;;
76296;SDS011;65104;52.994;6.552;2022-12-10T03:44:52;45.30;;;18.30;;
76296;SDS011;65104;52.994;6.552;2022-12-10T03:47:18;52.13;;;18.65;;
76296;SDS011;65104;52.994;6.552;2022-12-10T03:49:44;44.90;;;16.83;;
76296;SDS011;65104;52.994;6.552;2022-12-10T03:52:10;48.00;;;19.00;;
76296;SDS011;65104;52.994;6.552;2022-12-10T03:54:36;50.70;;;18.55;;
76296;SDS011;65104;52.994;6.552;2022-12-10T03:57:02;41.72;;;17.27;;
76296;SDS011;65104;52.994;6.552;2022-12-10T03:59:27;52.40;;;18.75;;
76296;SDS011;65104;52.994;6.552;2022-12-10T04:01:52;49.42;;;18.65;;
76296;SDS011;65104;52.994;6.552;2022-12-10T04:04:18;48.42;;;17.27;;
76296;SDS011;65104;52.994;6.552;2022-12-10T04:06:43;53.60;;;19.17;;
76296;SDS011;65104;52.994;6.552;2022-12-10T04:09:09;54.47;;;18.98;;
76296;SDS011;65104;52.994;6.552;2022-12-10T04:11:36;53.17;;;19.20;;
76296;SDS011;65104;52.994;6.552;2022-12-10T04:14:01;38.67;;;16.67;;
76296;SDS011;65104;52.994;6.552;2022-12-10T04:16:53;43.42;;;17.30;;
76296;SDS011;65104;52.994;6.552;2022-12-10T04:19:19;48.00;;;19.17;;
76296;SDS011;65104;52.994;6.552;2022-12-10T04:21:44;53.88;;;19.33;;
76296;SDS011;65104;52.994;6.552;2022-12-10T04:24:29;53.05;;;18.42;;
76296;SDS011;65104;52.994;6.552;2022-12-10T04:27:20;41.17;;;16.48;;
76296;SDS011;65104;52.994;6.552;2022-12-10T04:29:48;49.60;;;16.45;;
76296;SDS011;65104;52.994;6.552;2022-12-10T04:32:13;53.28;;;19.13;;
76296;SDS011;65104;52.994;6.552;2022-12-10T04:34:39;48.58;;;18.33;;
76296;SDS011;65104;52.994;6.552;2022-12-10T04:37:04;51.53;;;18.60;;
76296;SDS011;65104;52.994;6.552;2022-12-10T04:39:31;44.67;;;16.40;;
76296;SDS011;65104;52.994;6.552;2022-12-10T04:41:56;50.90;;;18.10;;
76296;SDS011;65104;52.994;6.552;2022-12-10T04:44:22;48.10;;;17.73;;
76296;SDS011;65104;52.994;6.552;2022-12-10T04:46:48;54.70;;;18.20;;
76296;SDS011;65104;52.994;6.552;2022-12-10T04:49:14;49.60;;;18.38;;
76296;SDS011;65104;52.994;6.552;2022-12-10T04:51:40;48.22;;;17.75;;
76296;SDS011;65104;52.994;6.552;2022-12-10T04:54:06;41.35;;;17.30;;
76296;SDS011;65104;52.994;6.552;2022-12-10T04:56:31;49.35;;;16.67;;
76296;SDS011;65104;52.994;6.552;2022-12-10T04:58:57;44.97;;;16.73;;
76296;SDS011;65104;52.994;6.552;2022-12-10T05:01:23;49.90;;;17.58;;
76296;SDS011;65104;52.994;6.552;2022-12-10T05:03:50;47.70;;;16.67;;
76296;SDS011;65104;52.994;6.552;2022-12-10T05:06:16;53.63;;;17.45;;
76296;SDS011;65104;52.994;6.552;2022-12-10T05:08:43;52.05;;;17.42;;
76296;SDS011;65104;52.994;6.552;2022-12-10T05:11:10;49.17;;;17.17;;
76296;SDS011;65104;52.994;6.552;2022-12-10T05:13:38;46.30;;;17.27;;
76296;SDS011;65104;52.994;6.552;2022-12-10T05:16:05;46.17;;;18.05;;
76296;SDS011;65104;52.994;6.552;2022-12-10T05:18:31;44.85;;;17.45;;
76296;SDS011;65104;52.994;6.552;2022-12-10T05:20:58;51.47;;;18.08;;
76296;SDS011;65104;52.994;6.552;2022-12-10T05:23:24;46.85;;;17.77;;
76296;SDS011;65104;52.994;6.552;2022-12-10T05:28:39;46.88;;;16.92;;
76296;SDS011;65104;52.994;6.552;2022-12-10T05:31:10;50.65;;;18.08;;
76296;SDS011;65104;52.994;6.552;2022-12-10T05:33:38;46.13;;;17.58;;
76296;SDS011;65104;52.994;6.552;2022-12-10T05:36:03;47.15;;;17.92;;
76296;SDS011;65104;52.994;6.552;2022-12-10T05:38:30;56.55;;;18.05;;
76296;SDS011;65104;52.994;6.552;2022-12-10T05:41:16;43.63;;;16.92;;
76296;SDS011;65104;52.994;6.552;2022-12-10T05:43:44;50.15;;;18.67;;
76296;SDS011;65104;52.994;6.552;2022-12-10T05:46:11;44.22;;;14.90;;
76296;SDS011;65104;52.994;6.552;2022-12-10T05:48:41;63.08;;;20.23;;
76296;SDS011;65104;52.994;6.552;2022-12-10T05:51:08;48.85;;;19.92;;
76296;SDS011;65104;52.994;6.552;2022-12-10T05:53:38;54.03;;;17.88;;
76296;SDS011;65104;52.994;6.552;2022-12-10T05:56:06;53.53;;;19.58;;
76296;SDS011;65104;52.994;6.552;2022-12-10T05:58:33;54.72;;;20.58;;
76296;SDS011;65104;52.994;6.552;2022-12-10T06:00:59;57.95;;;20.83;;
76296;SDS011;65104;52.994;6.552;2022-12-10T06:03:26;55.72;;;18.92;;
76296;SDS011;65104;52.994;6.552;2022-12-10T06:05:52;59.83;;;20.83;;
76296;SDS011;65104;52.994;6.552;2022-12-10T06:08:19;53.83;;;20.15;;
76296;SDS011;65104;52.994;6.552;2022-12-10T06:10:44;64.18;;;21.48;;
76296;SDS011;65104;52.994;6.552;2022-12-10T06:13:10;58.92;;;19.92;;
76296;SDS011;65104;52.994;6.552;2022-12-10T06:15:37;62.63;;;20.85;;
76296;SDS011;65104;52.994;6.552;2022-12-10T06:18:04;51.20;;;18.88;;
76296;SDS011;65104;52.994;6.552;2022-12-10T06:20:30;54.50;;;19.80;;
76296;SDS011;65104;52.994;6.552;2022-12-10T06:22:56;54.20;;;18.23;;
76296;SDS011;65104;52.994;6.552;2022-12-10T06:25:21;47.67;;;19.52;;
76296;SDS011;65104;52.994;6.552;2022-12-10T06:27:46;55.80;;;17.73;;
76296;SDS011;65104;52.994;6.552;2022-12-10T06:30:12;61.85;;;19.35;;
76296;SDS011;65104;52.994;6.552;2022-12-10T06:32:37;56.13;;;20.98;;
76296;SDS011;65104;52.994;6.552;2022-12-10T06:35:04;60.88;;;20.00;;
76296;SDS011;65104;52.994;6.552;2022-12-10T06:37:30;63.45;;;21.40;;
76296;SDS011;65104;52.994;6.552;2022-12-10T06:39:55;59.25;;;21.00;;
76296;SDS011;65104;52.994;6.552;2022-12-10T06:42:21;54.17;;;20.40;;
76296;SDS011;65104;52.994;6.552;2022-12-10T06:44:46;58.95;;;20.17;;
76296;SDS011;65104;52.994;6.552;2022-12-10T06:47:12;59.30;;;19.95;;
76296;SDS011;65104;52.994;6.552;2022-12-10T06:49:39;54.25;;;20.92;;
76296;SDS011;65104;52.994;6.552;2022-12-10T06:52:05;55.83;;;19.50;;
76296;SDS011;65104;52.994;6.552;2022-12-10T06:54:31;65.43;;;20.30;;
76296;SDS011;65104;52.994;6.552;2022-12-10T06:56:57;51.33;;;21.52;;
76296;SDS011;65104;52.994;6.552;2022-12-10T06:59:22;71.55;;;24.63;;
76296;SDS011;65104;52.994;6.552;2022-12-10T07:01:48;66.93;;;23.10;;
76296;SDS011;65104;52.994;6.552;2022-12-10T07:04:13;54.67;;;21.40;;
76296;SDS011;65104;52.994;6.552;2022-12-10T07:09:07;49.85;;;16.77;;
76296;SDS011;65104;52.994;6.552;2022-12-10T07:11:34;58.97;;;18.48;;
76296;SDS011;65104;52.994;6.552;2022-12-10T07:14:01;66.78;;;18.48;;
76296;SDS011;65104;52.994;6.552;2022-12-10T07:16:28;49.00;;;19.73;;
76296;SDS011;65104;52.994;6.552;2022-12-10T07:18:55;60.22;;;20.40;;
76296;SDS011;65104;52.994;6.552;2022-12-10T07:21:23;66.65;;;21.50;;
76296;SDS011;65104;52.994;6.552;2022-12-10T07:26:16;50.05;;;15.05;;
76296;SDS011;65104;52.994;6.552;2022-12-10T07:28:42;59.13;;;20.50;;
76296;SDS011;65104;52.994;6.552;2022-12-10T07:31:08;59.38;;;23.08;;
76296;SDS011;65104;52.994;6.552;2022-12-10T07:33:34;63.50;;;20.45;;
76296;SDS011;65104;52.994;6.552;2022-12-10T07:36:05;53.10;;;20.83;;
76296;SDS011;65104;52.994;6.552;2022-12-10T07:38:32;49.60;;;18.65;;
76296;SDS011;65104;52.994;6.552;2022-12-10T07:41:01;57.08;;;20.77;;
76296;SDS011;65104;52.994;6.552;2022-12-10T07:43:34;64.00;;;22.40;;
76296;SDS011;65104;52.994;6.552;2022-12-10T07:46:08;57.72;;;19.38;;
76296;SDS011;65104;52.994;6.552;2022-12-10T07:51:02;58.75;;;19.98;;
76296;SDS011;65104;52.994;6.552;2022-12-10T07:53:28;52.47;;;19.92;;
76296;SDS011;65104;52.994;6.552;2022-12-10T07:55:53;59.38;;;21.50;;
76296;SDS011;65104;52.994;6.552;2022-12-10T07:58:19;49.53;;;17.70;;
76296;SDS011;65104;52.994;6.552;2022-12-10T08:00:44;63.47;;;21.77;;
76296;SDS011;65104;52.994;6.552;2022-12-10T08:03:09;72.60;;;24.48;;
76296;SDS011;65104;52.994;6.552;2022-12-10T08:05:35;66.18;;;21.33;;
76296;SDS011;65104;52.994;6.552;2022-12-10T08:08:01;59.10;;;19.77;;
76296;SDS011;65104;52.994;6.552;2022-12-10T08:10:26;65.60;;;23.10;;
76296;SDS011;65104;52.994;6.552;2022-12-10T08:12:51;66.88;;;23.50;;
76296;SDS011;65104;52.994;6.552;2022-12-10T08:15:17;67.63;;;21.38;;
76296;SDS011;65104;52.994;6.552;2022-12-10T08:17:42;63.15;;;22.92;;
76296;SDS011;65104;52.994;6.552;2022-12-10T08:20:08;62.80;;;23.30;;
76296;SDS011;65104;52.994;6.552;2022-12-10T08:22:34;68.35;;;24.60;;
76296;SDS011;65104;52.994;6.552;2022-12-10T08:25:00;54.33;;;20.95;;
76296;SDS011;65104;52.994;6.552;2022-12-10T08:27:26;58.83;;;21.75;;
76296;SDS011;65104;52.994;6.552;2022-12-10T08:29:51;58.38;;;21.52;;
76296;SDS011;65104;52.994;6.552;2022-12-10T08:32:16;46.92;;;18.42;;
76296;SDS011;65104;52.994;6.552;2022-12-10T08:34:42;62.70;;;21.45;;
76296;SDS011;65104;52.994;6.552;2022-12-10T08:37:07;55.30;;;20.10;;
76296;SDS011;65104;52.994;6.552;2022-12-10T08:39:33;57.75;;;21.60;;
76296;SDS011;65104;52.994;6.552;2022-12-10T08:41:58;61.67;;;21.00;;
76296;SDS011;65104;52.994;6.552;2022-12-10T08:44:24;66.85;;;21.75;;
76296;SDS011;65104;52.994;6.552;2022-12-10T08:46:49;56.25;;;21.25;;
76296;SDS011;65104;52.994;6.552;2022-12-10T08:49:15;59.90;;;21.58;;
76296;SDS011;65104;52.994;6.552;2022-12-10T08:51:40;54.67;;;19.20;;
76296;SDS011;65104;52.994;6.552;2022-12-10T08:54:05;52.63;;;18.58;;
76296;SDS011;65104;52.994;6.552;2022-12-10T08:56:31;48.30;;;17.55;;
76296;SDS011;65104;52.994;6.552;2022-12-10T08:58:56;51.17;;;18.80;;
76296;SDS011;65104;52.994;6.552;2022-12-10T09:01:22;55.13;;;21.63;;
76296;SDS011;65104;52.994;6.552;2022-12-10T09:03:48;55.63;;;18.70;;
76296;SDS011;65104;52.994;6.552;2022-12-10T09:06:16;56.65;;;19.60;;
76296;SDS011;65104;52.994;6.552;2022-12-10T09:08:43;57.50;;;21.67;;
76296;SDS011;65104;52.994;6.552;2022-12-10T09:11:11;55.72;;;19.80;;
76296;SDS011;65104;52.994;6.552;2022-12-10T09:13:47;54.35;;;19.42;;
76296;SDS011;65104;52.994;6.552;2022-12-10T09:16:13;61.05;;;18.60;;
76296;SDS011;65104;52.994;6.552;2022-12-10T09:18:38;59.50;;;19.90;;
76296;SDS011;65104;52.994;6.552;2022-12-10T09:21:05;53.08;;;19.63;;
76296;SDS011;65104;52.994;6.552;2022-12-10T09:23:32;53.53;;;19.60;;
76296;SDS011;65104;52.994;6.552;2022-12-10T09:25:57;62.75;;;21.23;;
76296;SDS011;65104;52.994;6.552;2022-12-10T09:28:22;57.67;;;20.63;;
76296;SDS011;65104;52.994;6.552;2022-12-10T09:30:55;53.90;;;20.95;;
76296;SDS011;65104;52.994;6.552;2022-12-10T09:33:21;59.35;;;20.33;;
76296;SDS011;65104;52.994;6.552;2022-12-10T09:35:47;57.45;;;21.17;;
76296;SDS011;65104;52.994;6.552;2022-12-10T09:38:12;52.55;;;19.30;;
76296;SDS011;65104;52.994;6.552;2022-12-10T09:43:24;60.10;;;20.98;;
76296;SDS011;65104;52.994;6.552;2022-12-10T09:46:19;53.70;;;19.88;;
76296;SDS011;65104;52.994;6.552;2022-12-10T09:48:54;59.38;;;20.80;;
76296;SDS011;65104;52.994;6.552;2022-12-10T09:51:37;58.35;;;18.65;;
76296;SDS011;65104;52.994;6.552;2022-12-10T09:54:12;62.10;;;21.00;;
76296;SDS011;65104;52.994;6.552;2022-12-10T09:56:43;57.17;;;19.13;;
76296;SDS011;65104;52.994;6.552;2022-12-10T09:59:15;59.17;;;20.48;;
76296;SDS011;65104;52.994;6.552;2022-12-10T10:01:45;54.85;;;20.38;;
76296;SDS011;65104;52.994;6.552;2022-12-10T10:04:15;56.83;;;20.55;;
76296;SDS011;65104;52.994;6.552;2022-12-10T10:06:41;57.78;;;20.30;;
76296;SDS011;65104;52.994;6.552;2022-12-10T10:09:07;65.70;;;22.17;;
76296;SDS011;65104;52.994;6.552;2022-12-10T10:11:38;54.85;;;22.02;;
76296;SDS011;65104;52.994;6.552;2022-12-10T10:14:05;65.93;;;23.13;;
76296;SDS011;65104;52.994;6.552;2022-12-10T10:16:42;63.17;;;23.10;;
76296;SDS011;65104;52.994;6.552;2022-12-10T10:21:49;60.75;;;19.60;;
76296;SDS011;65104;52.994;6.552;2022-12-10T10:24:20;64.03;;;20.83;;
76296;SDS011;65104;52.994;6.552;2022-12-10T10:26:51;55.63;;;20.05;;
76296;SDS011;65104;52.994;6.552;2022-12-10T10:29:21;58.00;;;21.13;;
76296;SDS011;65104;52.994;6.552;2022-12-10T10:32:10;60.08;;;21.30;;
76296;SDS011;65104;52.994;6.552;2022-12-10T10:34:38;56.33;;;18.92;;
76296;SDS011;65104;52.994;6.552;2022-12-10T10:37:04;54.80;;;19.35;;
76296;SDS011;65104;52.994;6.552;2022-12-10T10:39:31;59.85;;;19.52;;
76296;SDS011;65104;52.994;6.552;2022-12-10T10:42:08;57.92;;;18.73;;
76296;SDS011;65104;52.994;6.552;2022-12-10T10:47:01;46.58;;;17.60;;
76296;SDS011;65104;52.994;6.552;2022-12-10T10:49:30;59.13;;;20.73;;
76296;SDS011;65104;52.994;6.552;2022-12-10T10:52:04;62.17;;;21.73;;
76296;SDS011;65104;52.994;6.552;2022-12-10T10:57:00;57.20;;;18.08;;
76296;SDS011;65104;52.994;6.552;2022-12-10T10:59:29;54.75;;;22.15;;
76296;SDS011;65104;52.994;6.552;2022-12-10T11:02:02;61.28;;;21.20;;
76296;SDS011;65104;52.994;6.552;2022-12-10T11:04:45;60.85;;;22.38;;
76296;SDS011;65104;52.994;6.552;2022-12-10T11:07:56;56.80;;;20.70;;
76296;SDS011;65104;52.994;6.552;2022-12-10T11:10:21;49.20;;;18.55;;
76296;SDS011;65104;52.994;6.552;2022-12-10T11:12:56;50.15;;;18.42;;
76296;SDS011;65104;52.994;6.552;2022-12-10T11:15:30;64.90;;;19.73;;
76296;SDS011;65104;52.994;6.552;2022-12-10T11:17:56;54.65;;;18.83;;
76296;SDS011;65104;52.994;6.552;2022-12-10T11:20:32;51.35;;;19.08;;
76296;SDS011;65104;52.994;6.552;2022-12-10T11:23:01;49.83;;;17.45;;
76296;SDS011;65104;52.994;6.552;2022-12-10T11:31:27;48.85;;;17.52;;
76296;SDS011;65104;52.994;6.552;2022-12-10T11:34:09;52.28;;;18.30;;
76296;SDS011;65104;52.994;6.552;2022-12-10T11:42:26;37.83;;;13.85;;
76296;SDS011;65104;52.994;6.552;2022-12-10T11:58:57;47.70;;;16.17;;
76296;SDS011;65104;52.994;6.552;2022-12-10T12:07:08;39.22;;;15.65;;
76296;SDS011;65104;52.994;6.552;2022-12-10T12:10:14;41.55;;;16.15;;
76296;SDS011;65104;52.994;6.552;2022-12-10T12:13:02;42.97;;;16.27;;
76296;SDS011;65104;52.994;6.552;2022-12-10T12:16:13;45.58;;;16.35;;
76296;SDS011;65104;52.994;6.552;2022-12-10T12:18:36;42.67;;;16.30;;
76296;SDS011;65104;52.994;6.552;2022-12-10T12:21:12;41.03;;;16.98;;
76296;SDS011;65104;52.994;6.552;2022-12-10T12:26:10;43.30;;;15.35;;
76296;SDS011;65104;52.994;6.552;2022-12-10T12:28:51;42.80;;;13.93;;
76296;SDS011;65104;52.994;6.552;2022-12-10T12:31:24;31.83;;;12.32;;
76296;SDS011;65104;52.994;6.552;2022-12-10T12:36:41;37.67;;;14.57;;
76296;SDS011;65104;52.994;6.552;2022-12-10T12:47:41;36.83;;;13.95;;
76296;SDS011;65104;52.994;6.552;2022-12-10T12:50:19;37.95;;;13.80;;
76296;SDS011;65104;52.994;6.552;2022-12-10T12:52:52;35.53;;;13.60;;
76296;SDS011;65104;52.994;6.552;2022-12-10T12:55:29;31.95;;;13.45;;
76296;SDS011;65104;52.994;6.552;2022-12-10T12:58:21;39.15;;;13.90;;
76296;SDS011;65104;52.994;6.552;2022-12-10T13:00:50;43.58;;;15.75;;
76296;SDS011;65104;52.994;6.552;2022-12-10T13:03:40;36.30;;;14.88;;
76296;SDS011;65104;52.994;6.552;2022-12-10T13:11:36;38.03;;;14.85;;
76296;SDS011;65104;52.994;6.552;2022-12-10T13:32:13;45.73;;;17.57;;
76296;SDS011;65104;52.994;6.552;2022-12-10T13:37:14;37.60;;;14.02;;
76296;SDS011;65104;52.994;6.552;2022-12-10T13:39:58;54.72;;;19.58;;
76296;SDS011;65104;52.994;6.552;2022-12-10T13:42:37;51.20;;;18.80;;
76296;SDS011;65104;52.994;6.552;2022-12-10T13:47:52;56.78;;;18.02;;
76296;SDS011;65104;52.994;6.552;2022-12-10T13:50:20;43.22;;;16.13;;
76296;SDS011;65104;52.994;6.552;2022-12-10T13:52:59;51.70;;;18.05;;
76296;SDS011;65104;52.994;6.552;2022-12-10T14:06:43;69.40;;;21.55;;
76296;SDS011;65104;52.994;6.552;2022-12-10T14:14:55;47.10;;;17.48;;
76296;SDS011;65104;52.994;6.552;2022-12-10T14:17:18;66.75;;;27.52;;
76296;SDS011;65104;52.994;6.552;2022-12-10T14:19:46;56.55;;;21.77;;
76296;SDS011;65104;52.994;6.552;2022-12-10T14:25:14;65.45;;;29.77;;
76296;SDS011;65104;52.994;6.552;2022-12-10T14:27:43;70.53;;;29.23;;
76296;SDS011;65104;52.994;6.552;2022-12-10T14:30:18;50.25;;;16.27;;
76296;SDS011;65104;52.994;6.552;2022-12-10T14:32:49;51.83;;;18.48;;
76296;SDS011;65104;52.994;6.552;2022-12-10T14:35:21;55.80;;;17.58;;
76296;SDS011;65104;52.994;6.552;2022-12-10T14:37:48;58.30;;;21.77;;
76296;SDS011;65104;52.994;6.552;2022-12-10T14:40:27;71.35;;;29.75;;
76296;SDS011;65104;52.994;6.552;2022-12-10T14:43:03;55.13;;;21.30;;
76296;SDS011;65104;52.994;6.552;2022-12-10T14:45:38;46.00;;;18.20;;
76296;SDS011;65104;52.994;6.552;2022-12-10T14:48:12;46.78;;;16.63;;
76296;SDS011;65104;52.994;6.552;2022-12-10T14:50:39;49.08;;;22.42;;
76296;SDS011;65104;52.994;6.552;2022-12-10T14:53:08;96.95;;;45.90;;
76296;SDS011;65104;52.994;6.552;2022-12-10T14:55:38;55.13;;;21.33;;
76296;SDS011;65104;52.994;6.552;2022-12-10T14:58:04;47.17;;;18.27;;
76296;SDS011;65104;52.994;6.552;2022-12-10T15:00:36;51.85;;;18.42;;
76296;SDS011;65104;52.994;6.552;2022-12-10T15:03:06;40.38;;;15.75;;
76296;SDS011;65104;52.994;6.552;2022-12-10T15:05:34;44.85;;;15.70;;
76296;SDS011;65104;52.994;6.552;2022-12-10T15:10:32;45.45;;;17.30;;
76296;SDS011;65104;52.994;6.552;2022-12-10T15:13:00;53.05;;;17.40;;
76296;SDS011;65104;52.994;6.552;2022-12-10T15:15:30;49.15;;;18.50;;
76296;SDS011;65104;52.994;6.552;2022-12-10T15:23:12;53.65;;;20.08;;
76296;SDS011;65104;52.994;6.552;2022-12-10T15:25:44;47.75;;;18.63;;
76296;SDS011;65104;52.994;6.552;2022-12-10T15:28:26;52.00;;;17.70;;
76296;SDS011;65104;52.994;6.552;2022-12-10T15:30:57;52.20;;;17.52;;
76296;SDS011;65104;52.994;6.552;2022-12-10T15:33:38;63.53;;;21.95;;
76296;SDS011;65104;52.994;6.552;2022-12-10T15:36:31;53.17;;;18.33;;
76296;SDS011;65104;52.994;6.552;2022-12-10T15:44:19;50.15;;;15.18;;
76296;SDS011;65104;52.994;6.552;2022-12-10T15:46:58;46.58;;;19.77;;
76296;SDS011;65104;52.994;6.552;2022-12-10T15:49:26;46.08;;;17.58;;
76296;SDS011;65104;52.994;6.552;2022-12-10T15:51:52;57.10;;;20.35;;
76296;SDS011;65104;52.994;6.552;2022-12-10T15:57:00;53.30;;;16.40;;
76296;SDS011;65104;52.994;6.552;2022-12-10T15:59:37;54.00;;;19.88;;
76296;SDS011;65104;52.994;6.552;2022-12-10T16:02:02;47.33;;;15.85;;
76296;SDS011;65104;52.994;6.552;2022-12-10T16:04:28;49.72;;;16.17;;
76296;SDS011;65104;52.994;6.552;2022-12-10T16:06:53;55.00;;;17.05;;
76296;SDS011;65104;52.994;6.552;2022-12-10T16:09:19;55.13;;;15.55;;
76296;SDS011;65104;52.994;6.552;2022-12-10T16:11:44;54.92;;;18.73;;
76296;SDS011;65104;52.994;6.552;2022-12-10T16:14:10;54.08;;;22.80;;
76296;SDS011;65104;52.994;6.552;2022-12-10T16:16:38;59.85;;;20.85;;
76296;SDS011;65104;52.994;6.552;2022-12-10T16:19:08;57.35;;;17.27;;
76296;SDS011;65104;52.994;6.552;2022-12-10T16:21:35;49.58;;;17.30;;
76296;SDS011;65104;52.994;6.552;2022-12-10T16:24:00;53.17;;;16.45;;
76296;SDS011;65104;52.994;6.552;2022-12-10T16:26:26;65.30;;;20.00;;
76296;SDS011;65104;52.994;6.552;2022-12-10T16:28:51;54.08;;;19.90;;
76296;SDS011;65104;52.994;6.552;2022-12-10T16:31:18;61.92;;;19.73;;
76296;SDS011;65104;52.994;6.552;2022-12-10T16:33:45;51.33;;;19.92;;
76296;SDS011;65104;52.994;6.552;2022-12-10T16:36:12;63.40;;;21.13;;
76296;SDS011;65104;52.994;6.552;2022-12-10T16:38:38;53.65;;;18.05;;
76296;SDS011;65104;52.994;6.552;2022-12-10T16:41:09;77.40;;;33.78;;
76296;SDS011;65104;52.994;6.552;2022-12-10T16:43:39;65.90;;;19.83;;
76296;SDS011;65104;52.994;6.552;2022-12-10T16:46:06;50.42;;;17.38;;
76296;SDS011;65104;52.994;6.552;2022-12-10T16:50:59;47.67;;;19.33;;
76296;SDS011;65104;52.994;6.552;2022-12-10T16:53:25;65.07;;;19.88;;
76296;SDS011;65104;52.994;6.552;2022-12-10T16:55:55;59.47;;;20.77;;
76296;SDS011;65104;52.994;6.552;2022-12-10T16:58:21;64.20;;;20.98;;
76296;SDS011;65104;52.994;6.552;2022-12-10T17:00:48;61.03;;;20.23;;
76296;SDS011;65104;52.994;6.552;2022-12-10T17:03:15;61.22;;;18.25;;
76296;SDS011;65104;52.994;6.552;2022-12-10T17:05:58;56.33;;;20.17;;
76296;SDS011;65104;52.994;6.552;2022-12-10T17:08:25;67.03;;;21.55;;